createdAt,value
2019-03-04T00:00:55.808Z,0.00
2019-03-04T00:01:55.778Z,0.00
2019-03-04T00:02:56.691Z,0.00
2019-03-04T00:03:55.658Z,0.00
2019-03-04T00:04:55.589Z,0.00
2019-03-04T00:05:55.561Z,0.00
2019-03-04T00:06:55.528Z,0.00
2019-03-04T00:07:55.498Z,0.00
2019-03-04T00:08:55.489Z,0.00
2019-03-04T00:09:55.441Z,0.00
2019-03-04T00:10:55.412Z,0.00
2019-03-04T00:11:55.382Z,0.00
2019-03-04T00:12:55.351Z,0.00
2019-03-04T00:13:55.345Z,0.00
2019-03-04T00:14:55.288Z,0.00
2019-03-04T00:15:55.336Z,0.00
2019-03-04T00:16:55.258Z,0.00
2019-03-04T00:17:55.201Z,0.00
2019-03-04T00:18:55.636Z,0.00
2019-03-04T00:19:56.093Z,0.00
2019-03-04T00:20:56.099Z,0.00
2019-03-04T00:21:55.597Z,0.00
2019-03-04T00:22:55.045Z,0.00
2019-03-04T00:23:55.593Z,0.00
2019-03-04T00:24:55.130Z,0.00
2019-03-04T00:25:54.970Z,0.00
2019-03-04T00:26:54.931Z,0.00
2019-03-04T00:27:54.899Z,0.00
2019-03-04T00:28:54.976Z,0.00
2019-03-04T00:29:54.874Z,0.00
2019-03-04T00:30:54.804Z,0.00
2019-03-04T00:31:54.811Z,0.00
2019-03-04T00:32:54.757Z,0.00
2019-03-04T00:33:54.727Z,0.00
2019-03-04T00:34:54.717Z,0.00
2019-03-04T00:35:54.656Z,0.00
2019-03-04T00:36:54.632Z,0.00
2019-03-04T00:37:54.597Z,0.00
2019-03-04T00:38:54.659Z,0.00
2019-03-04T00:39:54.631Z,0.00
2019-03-04T00:40:55.103Z,0.00
2019-03-04T00:41:55.097Z,0.00
2019-03-04T00:42:54.448Z,0.00
2019-03-04T00:43:54.412Z,0.00
2019-03-04T00:44:54.644Z,0.00
2019-03-04T00:45:54.355Z,0.00
2019-03-04T00:46:54.325Z,0.00
2019-03-04T00:47:54.295Z,0.00
2019-03-04T00:48:55.120Z,0.00
2019-03-04T00:49:54.270Z,0.00
2019-03-04T00:50:55.096Z,0.00
2019-03-04T00:51:54.180Z,0.00
2019-03-04T00:52:55.112Z,0.00
2019-03-04T00:53:54.120Z,0.00
2019-03-04T00:54:54.116Z,0.00
2019-03-04T00:55:54.054Z,0.00
2019-03-04T00:56:54.024Z,0.00
2019-03-04T00:57:54.599Z,0.00
2019-03-04T00:58:53.966Z,0.00
2019-03-04T00:59:54.140Z,0.00
2019-03-04T01:00:53.903Z,0.00
2019-03-04T01:01:54.604Z,0.00
2019-03-04T01:02:53.849Z,0.00
2019-03-04T01:03:54.630Z,0.00
2019-03-04T01:04:54.600Z,0.00
2019-03-04T01:05:53.773Z,0.00
2019-03-04T01:06:53.726Z,0.00
2019-03-04T01:07:53.697Z,0.00
2019-03-04T01:08:53.666Z,0.00
2019-03-04T01:09:53.634Z,0.00
2019-03-04T01:10:53.658Z,0.00
2019-03-04T01:11:53.577Z,0.00
2019-03-04T01:12:53.684Z,0.00
2019-03-04T01:13:53.517Z,0.00
2019-03-04T01:14:53.507Z,0.00
2019-03-04T01:15:53.635Z,0.00
2019-03-04T01:16:53.427Z,0.00
2019-03-04T01:17:54.102Z,0.00
2019-03-04T01:18:53.366Z,0.00
2019-03-04T01:19:53.337Z,0.00
2019-03-04T01:20:53.349Z,0.00
2019-03-04T01:21:53.282Z,0.00
2019-03-04T01:22:53.254Z,0.00
2019-03-04T01:23:53.222Z,0.00
2019-03-04T01:24:53.187Z,0.00
2019-03-04T01:25:53.183Z,0.00
2019-03-04T01:26:53.129Z,0.00
2019-03-04T01:27:53.097Z,0.00
2019-03-04T01:28:53.070Z,0.00
2019-03-04T01:29:53.043Z,0.00
2019-03-04T01:30:53.139Z,0.00
2019-03-04T01:31:52.974Z,0.00
2019-03-04T01:32:53.665Z,0.00
2019-03-04T01:33:52.919Z,0.00
2019-03-04T01:34:52.886Z,0.00
2019-03-04T01:35:52.879Z,0.00
2019-03-04T01:36:52.834Z,0.00
2019-03-04T01:37:53.609Z,0.00
2019-03-04T01:38:52.776Z,0.00
2019-03-04T01:39:52.740Z,0.00
2019-03-04T01:40:52.739Z,0.00
2019-03-04T01:41:52.677Z,0.00
2019-03-04T01:42:52.649Z,0.00
2019-03-04T01:43:52.614Z,0.00
2019-03-04T01:44:53.121Z,0.00
2019-03-04T01:45:52.581Z,0.00
2019-03-04T01:46:52.524Z,0.00
2019-03-04T01:47:53.107Z,0.00
2019-03-04T01:48:52.461Z,0.00
2019-03-04T01:49:53.126Z,0.00
2019-03-04T01:50:52.425Z,0.00
2019-03-04T01:51:52.374Z,0.00
2019-03-04T01:52:52.350Z,0.00
2019-03-04T01:53:52.308Z,0.00
2019-03-04T01:54:53.111Z,0.00
2019-03-04T01:55:52.654Z,0.00
2019-03-04T01:56:52.220Z,0.00
2019-03-04T01:57:53.109Z,0.00
2019-03-04T01:58:52.155Z,0.00
2019-03-04T01:59:53.111Z,0.00
2019-03-04T02:00:52.144Z,0.00
2019-03-04T02:01:52.070Z,0.00
2019-03-04T02:02:52.611Z,0.00
2019-03-04T02:03:52.002Z,0.00
2019-03-04T02:04:51.972Z,0.00
2019-03-04T02:05:52.700Z,0.00
2019-03-04T02:06:51.907Z,0.00
2019-03-04T02:07:52.614Z,0.00
2019-03-04T02:08:51.847Z,0.00
2019-03-04T02:09:51.816Z,0.00
2019-03-04T02:10:52.149Z,0.00
2019-03-04T02:11:51.754Z,0.00
2019-03-04T02:12:51.722Z,0.00
2019-03-04T02:13:51.699Z,0.00
2019-03-04T02:14:51.664Z,0.00
2019-03-04T02:15:51.654Z,0.00
2019-03-04T02:16:51.597Z,0.00
2019-03-04T02:17:52.111Z,0.00
2019-03-04T02:18:51.540Z,0.00
2019-03-04T02:19:51.518Z,0.00
2019-03-04T02:20:51.653Z,0.00
2019-03-04T02:21:51.448Z,0.00
2019-03-04T02:22:52.117Z,0.00
2019-03-04T02:23:51.383Z,0.00
2019-03-04T02:24:51.348Z,0.00
2019-03-04T02:25:51.318Z,0.00
2019-03-04T02:26:51.314Z,0.00
2019-03-04T02:27:51.257Z,0.00
2019-03-04T02:28:51.224Z,0.00
2019-03-04T02:29:52.116Z,0.00
2019-03-04T02:30:51.162Z,0.00
2019-03-04T02:31:51.156Z,0.00
2019-03-04T02:32:51.617Z,0.00
2019-03-04T02:33:51.072Z,0.00
2019-03-04T02:34:51.622Z,0.00
2019-03-04T02:35:51.810Z,0.00
2019-03-04T02:36:51.000Z,0.00
2019-03-04T02:37:51.635Z,0.00
2019-03-04T02:38:50.916Z,0.00
2019-03-04T02:39:51.615Z,0.00
2019-03-04T02:40:50.852Z,0.00
2019-03-04T02:41:51.151Z,0.00
2019-03-04T02:42:51.633Z,0.00
2019-03-04T02:43:50.755Z,0.00
2019-03-04T02:44:50.729Z,0.00
2019-03-04T02:45:51.624Z,0.00
2019-03-04T02:46:50.720Z,0.00
2019-03-04T02:47:50.632Z,0.00
2019-03-04T02:48:50.600Z,0.00
2019-03-04T02:49:50.582Z,0.00
2019-03-04T02:50:50.542Z,0.00
2019-03-04T02:51:50.541Z,0.00
2019-03-04T02:52:51.130Z,0.00
2019-03-04T02:53:50.444Z,0.00
2019-03-04T02:54:50.436Z,0.00
2019-03-04T02:55:50.380Z,0.00
2019-03-04T02:56:50.393Z,0.00
2019-03-04T02:57:50.321Z,0.00
2019-03-04T02:58:50.288Z,0.00
2019-03-04T02:59:50.255Z,0.00
2019-03-04T03:00:50.242Z,0.00
2019-03-04T03:01:50.220Z,0.00
2019-03-04T03:02:50.169Z,0.00
2019-03-04T03:03:50.132Z,0.00
2019-03-04T03:04:50.623Z,0.00
2019-03-04T03:05:50.621Z,0.00
2019-03-04T03:06:50.062Z,0.00
2019-03-04T03:07:50.034Z,0.00
2019-03-04T03:08:49.974Z,0.00
2019-03-04T03:09:50.623Z,0.00
2019-03-04T03:10:49.915Z,0.00
2019-03-04T03:11:49.902Z,0.00
2019-03-04T03:12:49.852Z,0.00
2019-03-04T03:13:49.819Z,0.00
2019-03-04T03:14:50.623Z,0.00
2019-03-04T03:15:49.759Z,0.00
2019-03-04T03:16:49.757Z,0.00
2019-03-04T03:17:49.693Z,0.00
2019-03-04T03:18:49.671Z,0.00
2019-03-04T03:19:49.636Z,0.00
2019-03-04T03:20:50.123Z,0.00
2019-03-04T03:21:49.609Z,0.00
2019-03-04T03:22:50.125Z,0.00
2019-03-04T03:23:49.507Z,0.00
2019-03-04T03:24:49.475Z,0.00
2019-03-04T03:25:50.126Z,0.00
2019-03-04T03:26:49.429Z,0.00
2019-03-04T03:27:49.406Z,0.00
2019-03-04T03:28:49.353Z,0.00
2019-03-04T03:29:51.878Z,0.00
2019-03-04T03:30:49.286Z,0.00
2019-03-04T03:31:49.264Z,0.00
2019-03-04T03:32:49.707Z,0.00
2019-03-04T03:33:49.211Z,0.00
2019-03-04T03:34:50.193Z,0.00
2019-03-04T03:35:49.131Z,0.00
2019-03-04T03:36:49.098Z,0.00
2019-03-04T03:37:49.099Z,0.00
2019-03-04T03:38:49.037Z,0.00
2019-03-04T03:39:50.532Z,0.00
2019-03-04T03:40:48.971Z,0.00
2019-03-04T03:41:48.948Z,0.00
2019-03-04T03:42:50.068Z,0.00
2019-03-04T03:43:48.884Z,0.00
2019-03-04T03:44:48.850Z,0.00
2019-03-04T03:45:48.818Z,0.00
2019-03-04T03:46:48.792Z,0.00
2019-03-04T03:47:48.798Z,0.00
2019-03-04T03:48:49.631Z,0.00
2019-03-04T03:49:48.721Z,0.00
2019-03-04T03:50:48.683Z,0.00
2019-03-04T03:51:48.647Z,0.00
2019-03-04T03:52:48.646Z,0.00
2019-03-04T03:53:48.597Z,0.00
2019-03-04T03:54:48.550Z,0.00
2019-03-04T03:55:48.558Z,0.00
2019-03-04T03:56:48.490Z,0.00
2019-03-04T03:57:48.478Z,0.00
2019-03-04T03:58:48.427Z,0.00
2019-03-04T03:59:48.377Z,0.00
2019-03-04T04:00:49.130Z,0.00
2019-03-04T04:01:48.329Z,0.00
2019-03-04T04:02:48.340Z,0.00
2019-03-04T04:03:48.260Z,0.00
2019-03-04T04:04:48.236Z,0.00
2019-03-04T04:05:48.211Z,0.00
2019-03-04T04:06:48.165Z,0.00
2019-03-04T04:07:48.159Z,0.00
2019-03-04T04:08:48.136Z,0.00
2019-03-04T04:09:48.077Z,0.00
2019-03-04T04:10:48.042Z,0.00
2019-03-04T04:11:48.016Z,0.00
2019-03-04T04:12:48.007Z,0.00
2019-03-04T04:13:47.945Z,0.00
2019-03-04T04:14:47.915Z,0.00
2019-03-04T04:15:47.882Z,0.00
2019-03-04T04:16:47.854Z,0.00
2019-03-04T04:17:47.847Z,0.00
2019-03-04T04:18:47.796Z,0.00
2019-03-04T04:19:47.763Z,0.00
2019-03-04T04:20:47.731Z,0.00
2019-03-04T04:21:47.698Z,0.00
2019-03-04T04:22:47.699Z,0.00
2019-03-04T04:23:47.639Z,0.00
2019-03-04T04:24:47.616Z,0.00
2019-03-04T04:25:47.574Z,0.00
2019-03-04T04:26:47.545Z,0.00
2019-03-04T04:27:47.672Z,0.00
2019-03-04T04:28:47.499Z,0.00
2019-03-04T04:29:47.452Z,0.00
2019-03-04T04:30:47.436Z,0.00
2019-03-04T04:31:47.393Z,0.00
2019-03-04T04:32:47.702Z,0.00
2019-03-04T04:33:47.332Z,0.00
2019-03-04T04:34:47.298Z,0.00
2019-03-04T04:35:47.268Z,0.00
2019-03-04T04:36:47.239Z,0.00
2019-03-04T04:37:47.234Z,0.00
2019-03-04T04:38:47.206Z,0.00
2019-03-04T04:39:47.159Z,0.00
2019-03-04T04:40:47.114Z,0.00
2019-03-04T04:41:47.095Z,0.00
2019-03-04T04:42:47.080Z,0.00
2019-03-04T04:43:47.033Z,0.00
2019-03-04T04:44:46.994Z,0.00
2019-03-04T04:45:46.962Z,0.00
2019-03-04T04:46:46.933Z,0.00
2019-03-04T04:47:46.904Z,0.00
2019-03-04T04:48:46.898Z,0.00
2019-03-04T04:49:47.019Z,0.00
2019-03-04T04:50:46.812Z,0.00
2019-03-04T04:51:46.780Z,0.00
2019-03-04T04:52:46.751Z,0.00
2019-03-04T04:53:47.174Z,0.00
2019-03-04T04:54:46.690Z,0.00
2019-03-04T04:55:46.657Z,0.00
2019-03-04T04:56:46.640Z,0.00
2019-03-04T04:57:46.602Z,0.00
2019-03-04T04:58:46.595Z,0.00
2019-03-04T04:59:46.551Z,0.00
2019-03-04T05:00:46.513Z,0.00
2019-03-04T05:01:46.483Z,0.00
2019-03-04T05:02:46.446Z,0.00
2019-03-04T05:03:46.447Z,0.00
2019-03-04T05:04:46.391Z,0.00
2019-03-04T05:05:46.356Z,0.00
2019-03-04T05:06:46.329Z,0.00
2019-03-04T05:07:46.296Z,0.00
2019-03-04T05:08:46.290Z,0.00
2019-03-04T05:09:47.142Z,0.00
2019-03-04T05:10:46.207Z,0.00
2019-03-04T05:11:46.185Z,0.00
2019-03-04T05:12:47.145Z,0.00
2019-03-04T05:13:46.139Z,0.00
2019-03-04T05:14:46.092Z,0.00
2019-03-04T05:15:46.059Z,0.00
2019-03-04T05:16:46.034Z,0.00
2019-03-04T05:17:46.000Z,0.00
2019-03-04T05:18:45.989Z,0.00
2019-03-04T05:19:45.938Z,0.00
2019-03-04T05:20:46.642Z,0.00
2019-03-04T05:21:45.877Z,0.00
2019-03-04T05:22:45.847Z,0.00
2019-03-04T05:23:45.835Z,0.00
2019-03-04T05:24:46.642Z,0.00
2019-03-04T05:25:45.758Z,0.00
2019-03-04T05:26:45.727Z,4.00
2019-03-04T05:27:45.699Z,4.00
2019-03-04T05:28:45.701Z,0.00
2019-03-04T05:29:46.065Z,4.00
2019-03-04T05:30:45.612Z,4.00
2019-03-04T05:31:45.636Z,4.00
2019-03-04T05:32:45.543Z,4.00
2019-03-04T05:33:45.539Z,4.00
2019-03-04T05:34:46.145Z,8.00
2019-03-04T05:35:45.454Z,4.00
2019-03-04T05:36:45.428Z,8.00
2019-03-04T05:37:45.396Z,8.00
2019-03-04T05:38:45.390Z,8.00
2019-03-04T05:39:45.333Z,12.00
2019-03-04T05:40:45.301Z,8.00
2019-03-04T05:41:45.274Z,12.00
2019-03-04T05:42:45.243Z,16.00
2019-03-04T05:43:45.243Z,24.00
2019-03-04T05:44:45.185Z,24.00
2019-03-04T05:45:45.149Z,28.00
2019-03-04T05:46:45.126Z,28.00
2019-03-04T05:47:45.100Z,44.00
2019-03-04T05:48:45.113Z,56.00
2019-03-04T05:49:45.648Z,72.00
2019-03-04T05:50:45.014Z,84.00
2019-03-04T05:51:44.976Z,96.00
2019-03-04T05:52:45.663Z,96.00
2019-03-04T05:53:44.940Z,104.00
2019-03-04T05:54:44.880Z,116.00
2019-03-04T05:55:44.857Z,132.00
2019-03-04T05:56:44.822Z,152.00
2019-03-04T05:57:44.790Z,168.00
2019-03-04T05:58:44.785Z,188.00
2019-03-04T05:59:44.736Z,204.00
2019-03-04T06:00:44.705Z,216.00
2019-03-04T06:01:44.669Z,224.00
2019-03-04T06:02:44.643Z,228.00
2019-03-04T06:03:44.649Z,232.00
2019-03-04T06:04:44.578Z,232.00
2019-03-04T06:05:44.547Z,248.00
2019-03-04T06:06:44.521Z,256.00
2019-03-04T06:07:44.488Z,264.00
2019-03-04T06:08:44.461Z,268.00
2019-03-04T06:09:44.452Z,292.00
2019-03-04T06:10:44.397Z,340.00
2019-03-04T06:11:44.366Z,404.00
2019-03-04T06:12:44.338Z,464.00
2019-03-04T06:13:44.332Z,508.00
2019-03-04T06:14:44.683Z,524.00
2019-03-04T06:15:44.244Z,520.00
2019-03-04T06:16:47.456Z,528.00
2019-03-04T06:17:44.187Z,532.00
2019-03-04T06:18:44.157Z,532.00
2019-03-04T06:19:44.175Z,524.00
2019-03-04T06:20:44.099Z,524.00
2019-03-04T06:21:44.067Z,552.00
2019-03-04T06:22:44.034Z,604.00
2019-03-04T06:23:44.010Z,680.00
2019-03-04T06:24:43.994Z,752.00
2019-03-04T06:25:43.945Z,776.00
2019-03-04T06:26:43.931Z,768.00
2019-03-04T06:27:43.889Z,772.00
2019-03-04T06:28:43.864Z,804.00
2019-03-04T06:29:43.870Z,832.00
2019-03-04T06:30:43.795Z,864.00
2019-03-04T06:31:43.764Z,928.00
2019-03-04T06:32:43.733Z,1000.00
2019-03-04T06:33:43.703Z,1048.00
2019-03-04T06:34:43.699Z,1068.00
2019-03-04T06:35:43.642Z,1072.00
2019-03-04T06:36:43.625Z,1072.00
2019-03-04T06:37:43.583Z,1056.00
2019-03-04T06:38:43.553Z,1060.00
2019-03-04T06:39:43.544Z,1076.00
2019-03-04T06:40:43.493Z,1128.00
2019-03-04T06:41:44.157Z,1196.00
2019-03-04T06:42:43.438Z,1276.00
2019-03-04T06:43:44.249Z,1408.00
2019-03-04T06:44:43.397Z,1620.00
2019-03-04T06:45:43.342Z,1924.00
2019-03-04T06:46:43.310Z,2324.00
2019-03-04T06:47:43.277Z,2704.00
2019-03-04T06:48:43.252Z,2916.00
2019-03-04T06:49:43.245Z,2912.00
2019-03-04T06:50:43.192Z,2776.00
2019-03-04T06:51:43.161Z,2580.00
2019-03-04T06:52:43.132Z,2364.00
2019-03-04T06:53:43.102Z,2208.00
2019-03-04T06:54:43.109Z,2116.00
2019-03-04T06:55:43.038Z,2104.00
2019-03-04T06:56:43.010Z,2200.00
2019-03-04T06:57:42.979Z,2348.00
2019-03-04T06:58:42.949Z,2456.00
2019-03-04T06:59:43.658Z,2504.00
2019-03-04T07:00:42.912Z,2460.00
2019-03-04T07:01:42.860Z,2424.00
2019-03-04T07:02:42.830Z,2492.00
2019-03-04T07:03:42.803Z,2628.00
2019-03-04T07:04:42.771Z,2808.00
2019-03-04T07:05:42.765Z,3028.00
2019-03-04T07:06:42.708Z,3292.00
2019-03-04T07:07:42.681Z,3584.00
2019-03-04T07:08:42.652Z,3836.00
2019-03-04T07:09:42.624Z,4008.00
2019-03-04T07:10:42.615Z,4068.00
2019-03-04T07:11:42.570Z,4028.00
2019-03-04T07:12:42.534Z,3948.00
2019-03-04T07:13:42.508Z,3960.00
2019-03-04T07:14:42.479Z,3940.00
2019-03-04T07:15:42.471Z,3876.00
2019-03-04T07:16:42.414Z,3824.00
2019-03-04T07:17:42.385Z,3788.00
2019-03-04T07:18:42.355Z,3760.00
2019-03-04T07:19:42.323Z,3732.00
2019-03-04T07:20:42.300Z,3716.00
2019-03-04T07:21:42.290Z,3712.00
2019-03-04T07:22:42.244Z,3728.00
2019-03-04T07:23:42.211Z,3728.00
2019-03-04T07:24:42.178Z,3664.00
2019-03-04T07:25:42.150Z,3484.00
2019-03-04T07:26:42.144Z,3256.00
2019-03-04T07:27:44.305Z,3060.00
2019-03-04T07:28:42.084Z,2916.00
2019-03-04T07:29:42.032Z,2828.00
2019-03-04T07:30:42.003Z,2756.00
2019-03-04T07:31:41.998Z,2692.00
2019-03-04T07:32:41.958Z,2660.00
2019-03-04T07:33:41.915Z,2632.00
2019-03-04T07:34:42.669Z,2596.00
2019-03-04T07:35:42.670Z,2560.00
2019-03-04T07:36:41.851Z,2544.00
2019-03-04T07:37:41.803Z,2552.00
2019-03-04T07:38:41.784Z,2568.00
2019-03-04T07:39:41.750Z,2600.00
2019-03-04T07:40:41.710Z,2608.00
2019-03-04T07:41:41.711Z,2556.00
2019-03-04T07:42:42.166Z,2460.00
2019-03-04T07:43:41.674Z,2364.00
2019-03-04T07:44:41.590Z,2268.00
2019-03-04T07:45:41.566Z,2164.00
2019-03-04T07:46:41.720Z,2080.00
2019-03-04T07:47:41.504Z,2060.00
2019-03-04T07:48:41.481Z,2132.00
2019-03-04T07:49:42.177Z,2232.00
2019-03-04T07:50:42.167Z,2292.00
2019-03-04T07:51:41.392Z,2316.00
2019-03-04T07:52:41.382Z,2340.00
2019-03-04T07:53:46.426Z,2376.00
2019-03-04T07:54:42.189Z,2468.00
2019-03-04T07:55:41.276Z,2592.00
2019-03-04T07:56:41.246Z,2792.00
2019-03-04T07:57:41.233Z,2992.00
2019-03-04T07:58:41.186Z,3128.00
2019-03-04T07:59:41.156Z,3308.00
2019-03-04T08:00:41.178Z,3612.00
2019-03-04T08:01:41.097Z,4060.00
2019-03-04T08:02:41.097Z,4524.00
2019-03-04T08:03:41.135Z,4816.00
2019-03-04T08:04:41.017Z,4932.00
2019-03-04T08:05:40.982Z,4932.00
2019-03-04T08:06:40.956Z,4784.00
2019-03-04T08:07:40.947Z,4512.00
2019-03-04T08:08:40.913Z,4224.00
2019-03-04T08:09:41.672Z,4040.00
2019-03-04T08:10:40.834Z,3972.00
2019-03-04T08:11:41.671Z,4028.00
2019-03-04T08:12:40.800Z,4168.00
2019-03-04T08:13:40.752Z,4212.00
2019-03-04T08:14:41.670Z,4444.00
2019-03-04T08:15:41.674Z,5292.00
2019-03-04T08:16:41.175Z,6392.00
2019-03-04T08:17:40.663Z,7316.00
2019-03-04T08:18:40.609Z,8012.00
2019-03-04T08:19:40.613Z,8512.00
2019-03-04T08:20:40.581Z,8864.00
2019-03-04T08:21:40.541Z,9260.00
2019-03-04T08:22:40.544Z,9640.00
2019-03-04T08:23:41.176Z,9768.00
2019-03-04T08:24:41.175Z,9660.00
2019-03-04T08:26:41.136Z,8896.00
2019-03-04T08:27:43.083Z,8536.00
2019-03-04T08:28:40.421Z,8312.00
2019-03-04T08:29:41.082Z,8300.00
2019-03-04T08:30:40.277Z,8444.00
2019-03-04T08:31:40.290Z,8612.00
2019-03-04T08:32:40.207Z,8716.00
2019-03-04T08:33:40.202Z,8692.00
2019-03-04T08:34:40.158Z,8472.00
2019-03-04T08:35:40.125Z,8136.00
2019-03-04T08:36:40.095Z,7748.00
2019-03-04T08:37:40.064Z,7464.00
2019-03-04T08:38:40.060Z,7352.00
2019-03-04T08:39:40.011Z,7316.00
2019-03-04T08:40:39.981Z,7088.00
2019-03-04T08:41:39.955Z,6788.00
2019-03-04T08:42:39.930Z,6464.00
2019-03-04T08:43:39.948Z,6140.00
2019-03-04T08:44:39.871Z,6108.00
2019-03-04T08:45:39.849Z,6100.00
2019-03-04T08:46:39.819Z,6116.00
2019-03-04T08:47:39.789Z,6088.00
2019-03-04T08:48:39.811Z,5984.00
2019-03-04T08:49:39.737Z,6032.00
2019-03-04T08:50:39.730Z,5912.00
2019-03-04T08:51:39.683Z,5696.00
2019-03-04T08:52:39.653Z,5508.00
2019-03-04T08:53:39.647Z,5308.00
2019-03-04T08:54:39.604Z,5292.00
2019-03-04T08:55:39.579Z,5460.00
2019-03-04T08:56:39.543Z,5716.00
2019-03-04T08:57:39.515Z,6056.00
2019-03-04T08:58:39.520Z,6344.00
2019-03-04T08:59:39.465Z,6552.00
2019-03-04T09:00:39.433Z,6648.00
2019-03-04T09:01:39.402Z,6732.00
2019-03-04T09:02:39.381Z,6884.00
2019-03-04T09:03:39.370Z,6912.00
2019-03-04T09:04:39.323Z,6704.00
2019-03-04T09:05:39.299Z,6720.00
2019-03-04T09:06:39.263Z,6832.00
2019-03-04T09:07:39.237Z,6544.00
2019-03-04T09:08:39.218Z,5820.00
2019-03-04T09:09:39.208Z,5372.00
2019-03-04T09:10:39.155Z,5376.00
2019-03-04T09:11:39.130Z,5620.00
2019-03-04T09:12:39.098Z,5592.00
2019-03-04T09:13:39.081Z,5612.00
2019-03-04T09:14:39.073Z,5832.00
2019-03-04T09:15:39.024Z,5920.00
2019-03-04T09:16:38.993Z,5988.00
2019-03-04T09:17:38.980Z,6016.00
2019-03-04T09:18:38.935Z,5960.00
2019-03-04T09:19:38.934Z,5672.00
2019-03-04T09:20:39.684Z,5356.00
2019-03-04T09:21:38.852Z,5708.00
2019-03-04T09:22:38.832Z,6056.00
2019-03-04T09:23:38.801Z,5636.00
2019-03-04T09:24:38.795Z,4868.00
2019-03-04T09:25:38.751Z,4536.00
2019-03-04T09:26:38.716Z,4448.00
2019-03-04T09:27:38.695Z,4452.00
2019-03-04T09:28:38.661Z,4240.00
2019-03-04T09:29:38.658Z,3736.00
2019-03-04T09:30:41.596Z,3532.00
2019-03-04T09:31:38.588Z,3496.00
2019-03-04T09:32:38.552Z,3472.00
2019-03-04T09:33:38.527Z,3324.00
2019-03-04T09:34:38.527Z,3300.00
2019-03-04T09:35:38.474Z,3324.00
2019-03-04T09:36:38.449Z,3288.00
2019-03-04T09:37:38.421Z,3416.00
2019-03-04T09:38:38.390Z,3904.00
2019-03-04T09:39:38.382Z,4348.00
2019-03-04T09:40:39.191Z,4728.00
2019-03-04T09:41:39.199Z,5188.00
2019-03-04T09:42:38.294Z,5704.00
2019-03-04T09:43:38.251Z,6256.00
2019-03-04T09:44:38.251Z,6856.00
2019-03-04T09:45:39.373Z,7344.00
2019-03-04T09:46:38.183Z,7700.00
2019-03-04T09:47:38.137Z,7860.00
2019-03-04T09:48:38.112Z,8148.00
2019-03-04T09:49:38.110Z,8868.00
2019-03-04T09:50:38.057Z,9640.00
2019-03-04T09:51:38.692Z,10316.00
2019-03-04T09:52:38.009Z,11092.00
2019-03-04T09:53:39.691Z,11756.00
2019-03-04T09:54:37.974Z,11676.00
2019-03-04T09:55:37.925Z,10956.00
2019-03-04T09:56:37.896Z,10652.00
2019-03-04T09:57:37.875Z,9448.00
2019-03-04T09:58:37.847Z,9400.00
2019-03-04T09:59:37.840Z,10496.00
2019-03-04T10:00:37.786Z,11576.00
2019-03-04T10:01:37.766Z,11960.00
2019-03-04T10:02:37.738Z,11728.00
2019-03-04T10:03:37.713Z,11016.00
2019-03-04T10:04:37.710Z,10320.00
2019-03-04T10:05:37.662Z,9864.00
2019-03-04T10:06:37.634Z,9724.00
2019-03-04T10:07:37.604Z,9648.00
2019-03-04T10:08:37.587Z,8836.00
2019-03-04T10:09:37.572Z,7792.00
2019-03-04T10:10:37.548Z,6908.00
2019-03-04T10:11:37.498Z,6712.00
2019-03-04T10:12:37.490Z,6856.00
2019-03-04T10:13:37.449Z,6340.00
2019-03-04T10:14:37.425Z,7632.00
2019-03-04T10:15:37.423Z,8348.00
2019-03-04T10:16:37.378Z,9384.00
2019-03-04T10:17:37.344Z,10276.00
2019-03-04T10:18:37.323Z,7984.00
2019-03-04T10:19:37.296Z,9240.00
2019-03-04T10:20:37.343Z,8092.00
2019-03-04T10:21:37.249Z,9520.00
2019-03-04T10:22:37.220Z,10308.00
2019-03-04T10:23:37.196Z,12832.00
2019-03-04T10:24:37.169Z,13400.00
2019-03-04T10:25:37.168Z,14040.00
2019-03-04T10:26:37.124Z,12724.00
2019-03-04T10:27:37.092Z,11084.00
2019-03-04T10:28:37.058Z,9204.00
2019-03-04T10:29:37.036Z,8612.00
2019-03-04T10:30:37.036Z,9272.00
2019-03-04T10:31:36.988Z,8684.00
2019-03-04T10:32:36.964Z,7340.00
2019-03-04T10:33:36.936Z,7168.00
2019-03-04T10:34:36.908Z,7092.00
2019-03-04T10:35:36.912Z,5696.00
2019-03-04T10:36:36.862Z,4948.00
2019-03-04T10:37:37.708Z,5580.00
2019-03-04T10:38:36.809Z,6184.00
2019-03-04T10:39:36.783Z,6280.00
2019-03-04T10:40:36.785Z,7728.00
2019-03-04T10:41:36.733Z,8008.00
2019-03-04T10:42:36.711Z,7488.00
2019-03-04T10:43:36.686Z,7852.00
2019-03-04T10:44:37.984Z,9304.00
2019-03-04T10:45:36.630Z,7372.00
2019-03-04T10:46:36.631Z,6356.00
2019-03-04T10:47:43.677Z,7392.00
2019-03-04T10:48:36.551Z,8804.00
2019-03-04T10:49:36.531Z,10196.00
2019-03-04T10:50:36.502Z,10820.00
2019-03-04T10:51:36.505Z,8532.00
2019-03-04T10:52:36.451Z,8292.00
2019-03-04T10:53:36.444Z,8940.00
2019-03-04T10:54:36.403Z,9892.00
2019-03-04T10:55:42.102Z,9844.00
2019-03-04T10:56:36.373Z,9664.00
2019-03-04T10:57:36.326Z,10652.00
2019-03-04T10:58:36.297Z,11528.00
2019-03-04T10:59:36.270Z,9616.00
2019-03-04T11:00:36.248Z,7832.00
2019-03-04T11:01:36.249Z,6744.00
2019-03-04T11:02:36.200Z,7984.00
2019-03-04T11:03:36.177Z,10236.00
2019-03-04T11:04:36.145Z,8400.00
2019-03-04T11:05:36.128Z,5096.00
2019-03-04T11:06:36.117Z,2348.00
2019-03-04T11:07:36.067Z,1512.00
2019-03-04T11:08:36.043Z,1756.00
2019-03-04T11:09:36.019Z,2696.00
2019-03-04T11:10:35.994Z,3296.00
2019-03-04T11:11:35.994Z,4404.00
2019-03-04T11:12:35.943Z,3636.00
2019-03-04T11:13:35.918Z,3736.00
2019-03-04T11:14:35.889Z,4196.00
2019-03-04T11:15:35.858Z,4492.00
2019-03-04T11:16:35.833Z,4828.00
2019-03-04T11:17:35.827Z,5212.00
2019-03-04T11:18:35.778Z,5380.00
2019-03-04T11:19:35.746Z,5432.00
2019-03-04T11:20:35.717Z,4176.00
2019-03-04T11:21:35.696Z,3356.00
2019-03-04T11:22:35.710Z,3292.00
2019-03-04T11:23:35.631Z,4228.00
2019-03-04T11:24:35.605Z,5260.00
2019-03-04T11:25:35.572Z,4304.00
2019-03-04T11:26:35.545Z,3544.00
2019-03-04T11:27:35.606Z,5824.00
2019-03-04T11:28:35.485Z,5428.00
2019-03-04T11:29:35.488Z,5288.00
2019-03-04T11:30:35.427Z,5172.00
2019-03-04T11:31:35.403Z,5484.00
2019-03-04T11:32:35.430Z,2904.00
2019-03-04T11:33:35.333Z,2076.00
2019-03-04T11:34:35.308Z,2104.00
2019-03-04T11:35:35.287Z,2388.00
2019-03-04T11:36:35.242Z,2612.00
2019-03-04T11:37:35.314Z,2420.00
2019-03-04T11:38:35.188Z,2260.00
2019-03-04T11:39:35.149Z,2364.00
2019-03-04T11:40:35.149Z,2840.00
2019-03-04T11:41:35.092Z,3284.00
2019-03-04T11:42:35.100Z,3160.00
2019-03-04T11:43:35.033Z,2532.00
2019-03-04T11:44:35.000Z,2484.00
2019-03-04T11:45:34.973Z,2780.00
2019-03-04T11:46:34.945Z,2596.00
2019-03-04T11:47:34.915Z,2596.00
2019-03-04T11:48:34.934Z,3124.00
2019-03-04T11:49:34.857Z,3804.00
2019-03-04T11:50:34.815Z,4268.00
2019-03-04T11:51:34.837Z,4596.00
2019-03-04T11:52:34.759Z,5412.00
2019-03-04T11:53:35.658Z,6220.00
2019-03-04T11:54:34.713Z,6348.00
2019-03-04T11:55:34.699Z,6728.00
2019-03-04T11:56:34.644Z,7172.00
2019-03-04T11:57:34.624Z,7060.00
2019-03-04T11:58:34.616Z,6456.00
2019-03-04T11:59:34.586Z,5488.00
2019-03-04T12:00:34.523Z,6440.00
2019-03-04T12:01:34.481Z,8528.00
2019-03-04T12:02:38.835Z,11404.00
2019-03-04T12:03:34.455Z,13224.00
2019-03-04T12:04:34.405Z,14076.00
2019-03-04T12:05:34.370Z,14696.00
2019-03-04T12:06:34.332Z,15628.00
2019-03-04T12:07:34.320Z,15192.00
2019-03-04T12:08:34.324Z,13144.00
2019-03-04T12:09:34.244Z,11496.00
2019-03-04T12:10:34.232Z,11704.00
2019-03-04T12:11:38.157Z,12108.00
2019-03-04T12:12:34.155Z,13640.00
2019-03-04T12:13:34.180Z,14720.00
2019-03-04T12:14:34.105Z,13068.00
2019-03-04T12:15:34.180Z,11744.00
2019-03-04T12:16:34.087Z,11124.00
2019-03-04T12:17:34.028Z,10440.00
2019-03-04T12:18:34.046Z,10792.00
2019-03-04T12:19:33.972Z,11208.00
2019-03-04T12:20:33.927Z,10764.00
2019-03-04T12:21:33.898Z,10512.00
2019-03-04T12:22:33.896Z,10852.00
2019-03-04T12:23:33.836Z,10732.00
2019-03-04T12:24:33.874Z,10012.00
2019-03-04T12:25:33.793Z,9840.00
2019-03-04T12:26:33.766Z,9856.00
2019-03-04T12:27:33.735Z,9580.00
2019-03-04T12:28:33.702Z,9156.00
2019-03-04T12:29:33.729Z,8144.00
2019-03-04T12:30:33.652Z,8036.00
2019-03-04T12:31:33.612Z,7552.00
2019-03-04T12:32:33.586Z,6492.00
2019-03-04T12:33:33.569Z,5192.00
2019-03-04T12:34:33.573Z,4984.00
2019-03-04T12:35:33.482Z,6160.00
2019-03-04T12:36:33.477Z,7844.00
2019-03-04T12:37:33.456Z,9188.00
2019-03-04T12:38:33.402Z,9376.00